createdAt,value
2022-08-26T00:00:44.646Z,7.45
2022-08-26T00:03:47.307Z,6.80
2022-08-26T00:06:48.915Z,6.65
2022-08-26T00:09:54.399Z,6.70
2022-08-26T00:12:56.988Z,6.35
2022-08-26T00:15:58.730Z,6.65
2022-08-26T00:19:00.326Z,6.85
2022-08-26T00:22:01.928Z,7.07
2022-08-26T00:25:05.604Z,6.50
2022-08-26T00:28:07.994Z,6.60
2022-08-26T00:31:12.436Z,6.55
2022-08-26T00:34:15.233Z,6.88
2022-08-26T00:37:16.977Z,6.82
2022-08-26T00:40:22.628Z,7.30
2022-08-26T00:43:26.574Z,7.15
2022-08-26T00:46:34.150Z,6.68
2022-08-26T00:49:42.033Z,6.95
2022-08-26T00:52:44.793Z,7.03
2022-08-26T00:56:17.756Z,6.70
2022-08-26T00:59:20.353Z,7.00
2022-08-26T01:02:23.049Z,6.75
2022-08-26T01:05:25.341Z,6.93
2022-08-26T01:08:27.568Z,6.85
2022-08-26T01:11:29.712Z,6.80
2022-08-26T01:14:35.009Z,7.00
2022-08-26T01:17:38.945Z,6.93
2022-08-26T01:20:52.679Z,7.15
2022-08-26T01:23:59.576Z,7.32
2022-08-26T01:27:08.672Z,6.72
2022-08-26T01:30:11.584Z,7.07
2022-08-26T01:33:17.404Z,7.00
2022-08-26T01:36:19.155Z,6.80
2022-08-26T01:39:22.463Z,6.93
2022-08-26T01:42:25.292Z,7.05
2022-08-26T01:45:30.580Z,7.63
2022-08-26T01:48:35.263Z,6.97
2022-08-26T01:51:39.141Z,7.70
2022-08-26T01:54:41.438Z,6.68
2022-08-26T01:57:52.068Z,7.05
2022-08-26T02:00:58.529Z,7.15
2022-08-26T02:04:22.126Z,7.38
2022-08-26T02:07:26.810Z,7.30
2022-08-26T02:10:29.265Z,6.60
2022-08-26T02:13:33.014Z,7.05
2022-08-26T02:16:39.568Z,6.75
2022-08-26T02:19:47.516Z,7.33
2022-08-26T02:22:49.830Z,7.15
2022-08-26T02:26:04.393Z,6.93
2022-08-26T02:29:11.316Z,7.05
2022-08-26T02:32:13.523Z,6.95
2022-08-26T02:35:22.216Z,6.78
2022-08-26T02:38:23.795Z,7.20
2022-08-26T02:41:25.342Z,7.07
2022-08-26T02:44:27.478Z,7.00
2022-08-26T02:47:29.293Z,6.50
2022-08-26T02:50:34.491Z,7.00
2022-08-26T02:53:36.355Z,7.10
2022-08-26T02:56:38.340Z,7.15
2022-08-26T02:59:39.925Z,7.30
2022-08-26T03:02:41.847Z,7.47
2022-08-26T03:05:44.529Z,7.18
2022-08-26T03:08:46.864Z,7.03
2022-08-26T03:11:48.651Z,7.30
2022-08-26T03:14:50.787Z,7.03
2022-08-26T03:17:55.257Z,7.50
2022-08-26T03:21:05.429Z,6.97
2022-08-26T03:24:10.617Z,6.80
2022-08-26T03:27:12.165Z,7.03
2022-08-26T03:30:33.632Z,7.03
2022-08-26T03:33:35.778Z,7.25
2022-08-26T03:36:37.435Z,6.80
2022-08-26T03:39:38.994Z,7.60
2022-08-26T03:42:45.312Z,7.03
2022-08-26T03:45:47.132Z,7.07
2022-08-26T03:48:48.652Z,7.80
2022-08-26T03:51:51.500Z,7.57
2022-08-26T03:54:53.382Z,7.10
2022-08-26T03:57:54.946Z,6.78
2022-08-26T04:00:56.934Z,7.28
2022-08-26T04:04:00.304Z,7.03
2022-08-26T04:07:02.350Z,6.80
2022-08-26T04:10:04.475Z,7.15
2022-08-26T04:13:06.498Z,7.00
2022-08-26T04:16:08.138Z,6.88
2022-08-26T04:19:13.541Z,6.85
2022-08-26T04:22:15.125Z,7.10
2022-08-26T04:25:25.935Z,6.82
2022-08-26T04:28:28.942Z,7.03
2022-08-26T04:31:30.921Z,7.03
2022-08-26T04:34:32.772Z,6.80
2022-08-26T04:37:35.182Z,7.25
2022-08-26T04:40:37.037Z,7.25
2022-08-26T04:43:41.947Z,7.22
2022-08-26T04:46:43.910Z,7.45
2022-08-26T04:49:45.642Z,7.32
2022-08-26T04:52:47.159Z,6.97
2022-08-26T04:55:48.861Z,7.40
2022-08-26T04:58:57.071Z,6.70
2022-08-26T05:01:59.593Z,7.38
2022-08-26T05:05:01.385Z,6.80
2022-08-26T05:08:03.097Z,7.35
2022-08-26T05:11:06.083Z,6.95
2022-08-26T05:14:07.929Z,7.30
2022-08-26T05:17:09.477Z,7.57
2022-08-26T05:20:16.492Z,7.22
2022-08-26T05:23:22.405Z,6.93
2022-08-26T05:26:26.712Z,6.95
2022-08-26T05:29:28.255Z,6.80
2022-08-26T05:32:29.779Z,7.50
2022-08-26T05:35:33.736Z,7.00
2022-08-26T05:38:35.291Z,7.13
2022-08-26T05:41:40.895Z,7.72
2022-08-26T05:44:55.613Z,7.40
2022-08-26T05:47:57.828Z,7.30
2022-08-26T05:51:04.904Z,7.38
2022-08-26T05:54:10.548Z,7.30
2022-08-26T05:57:13.803Z,6.82
2022-08-26T06:00:16.187Z,7.10
2022-08-26T06:03:18.766Z,7.13
2022-08-26T06:06:28.451Z,7.40
2022-08-26T06:09:31.253Z,7.20
2022-08-26T06:12:33.711Z,7.30
2022-08-26T06:15:39.683Z,7.50
2022-08-26T06:18:45.920Z,7.38
2022-08-26T06:21:54.251Z,7.38
2022-08-26T06:25:14.959Z,7.18
2022-08-26T06:28:17.242Z,7.40
2022-08-26T06:31:19.750Z,7.18
2022-08-26T06:34:21.816Z,6.75
2022-08-26T06:37:23.352Z,7.50
2022-08-26T06:40:25.416Z,7.30
2022-08-26T06:43:29.430Z,6.93
2022-08-26T06:46:31.582Z,6.93
2022-08-26T06:49:33.197Z,6.93
2022-08-26T06:52:34.752Z,7.38
2022-08-26T06:55:41.476Z,7.20
2022-08-26T06:58:43.975Z,7.55
2022-08-26T07:01:45.806Z,6.95
2022-08-26T07:04:47.847Z,6.63
2022-08-26T07:07:49.630Z,6.97
2022-08-26T07:10:51.182Z,7.20
2022-08-26T07:13:58.908Z,9.68
2022-08-26T07:17:02.549Z,10.40
2022-08-26T07:20:07.404Z,12.07
2022-08-26T07:23:11.641Z,11.07
2022-08-26T07:26:17.928Z,12.05
2022-08-26T07:29:19.578Z,12.77
2022-08-26T07:32:26.035Z,11.38
2022-08-26T07:35:27.595Z,11.30
2022-08-26T07:38:29.201Z,11.27
2022-08-26T07:41:32.962Z,11.55
2022-08-26T07:44:35.724Z,12.10
2022-08-26T07:47:37.266Z,11.95
2022-08-26T07:50:48.896Z,11.88
2022-08-26T07:53:52.354Z,12.13
2022-08-26T07:56:55.916Z,11.63
2022-08-26T07:59:58.561Z,11.35
2022-08-26T08:03:01.747Z,11.43
2022-08-26T08:06:03.742Z,11.68
2022-08-26T08:09:05.513Z,10.63
2022-08-26T08:12:09.466Z,10.43
2022-08-26T08:15:17.177Z,10.05
2022-08-26T08:18:20.521Z,10.05
2022-08-26T08:21:26.136Z,9.73
2022-08-26T08:24:27.845Z,9.80
2022-08-26T08:27:29.684Z,9.35
2022-08-26T08:30:31.722Z,9.32
2022-08-26T08:33:36.961Z,9.88
2022-08-26T08:36:40.121Z,9.25
2022-08-26T08:39:43.154Z,9.02
2022-08-26T08:43:09.587Z,9.65
2022-08-26T08:46:15.189Z,9.10
2022-08-26T08:49:17.629Z,10.52
2022-08-26T08:52:31.097Z,10.00
2022-08-26T08:55:44.263Z,9.90
2022-08-26T08:59:12.063Z,9.45
2022-08-26T09:02:30.507Z,9.82
2022-08-26T09:05:40.150Z,10.25
2022-08-26T09:08:42.903Z,9.95
2022-08-26T09:11:44.536Z,10.25
2022-08-26T09:14:49.004Z,10.13
2022-08-26T09:17:59.906Z,10.25
2022-08-26T09:21:05.280Z,10.57
2022-08-26T09:24:08.168Z,10.30
2022-08-26T09:27:52.297Z,10.25
2022-08-26T09:30:59.659Z,10.43
2022-08-26T09:34:04.563Z,9.82
2022-08-26T09:37:07.609Z,11.20
2022-08-26T09:40:35.485Z,10.05
2022-08-26T09:43:37.455Z,9.93
2022-08-26T09:47:01.266Z,10.93
2022-08-26T09:50:23.376Z,10.70
2022-08-26T09:53:34.310Z,10.15
2022-08-26T09:56:38.465Z,9.65
2022-08-26T09:59:40.882Z,10.02
2022-08-26T10:02:47.838Z,10.23
2022-08-26T10:06:04.542Z,10.18
2022-08-26T10:09:10.990Z,10.57
2022-08-26T10:12:19.127Z,10.13
2022-08-26T10:15:22.399Z,10.55
2022-08-26T10:18:34.223Z,10.20
2022-08-26T10:21:42.461Z,9.70
2022-08-26T10:24:51.950Z,10.55
2022-08-26T10:28:09.634Z,10.57
2022-08-26T10:31:40.350Z,10.02
2022-08-26T10:34:42.843Z,10.00
2022-08-26T10:38:01.165Z,10.85
2022-08-26T10:41:11.228Z,10.13
2022-08-26T10:44:18.104Z,9.98
2022-08-26T10:47:25.926Z,10.35
2022-08-26T10:50:35.759Z,9.60
2022-08-26T10:53:52.757Z,9.55
2022-08-26T10:57:16.575Z,10.95
2022-08-26T11:00:41.478Z,9.93
2022-08-26T11:04:09.725Z,10.70
2022-08-26T11:07:38.093Z,9.63
2022-08-26T11:10:42.653Z,9.75
2022-08-26T11:13:57.151Z,9.07
2022-08-26T11:16:59.751Z,9.27
2022-08-26T11:20:07.476Z,9.48
2022-08-26T11:23:13.621Z,9.45
2022-08-26T11:26:30.028Z,8.73
2022-08-26T11:29:57.110Z,8.30
2022-08-26T11:32:59.481Z,8.35
2022-08-26T11:36:01.327Z,9.07
2022-08-26T11:39:24.284Z,8.85
2022-08-26T11:42:35.605Z,8.27
2022-08-26T11:45:40.138Z,8.80
2022-08-26T11:48:44.283Z,7.28
2022-08-26T11:51:48.285Z,6.72
2022-08-26T11:55:18.160Z,7.38
2022-08-26T11:58:22.650Z,7.35
2022-08-26T12:01:31.189Z,7.78
2022-08-26T12:04:37.639Z,7.45
2022-08-26T12:07:39.760Z,7.95
2022-08-26T12:10:44.470Z,8.07
2022-08-26T12:14:16.687Z,7.50
2022-08-26T12:17:27.306Z,8.73
2022-08-26T12:20:48.510Z,8.05
2022-08-26T12:23:54.594Z,7.47
2022-08-26T12:27:20.965Z,8.80
2022-08-26T12:30:24.730Z,8.65
2022-08-26T12:33:28.701Z,8.98
2022-08-26T12:36:36.502Z,8.90
2022-08-26T12:39:40.865Z,8.52
2022-08-26T12:42:42.487Z,8.27
2022-08-26T12:45:55.773Z,8.60
2022-08-26T12:49:01.222Z,8.70
2022-08-26T12:52:05.407Z,8.68
2022-08-26T12:55:19.518Z,8.57
2022-08-26T12:59:19.873Z,7.90
2022-08-26T13:02:39.206Z,8.55
2022-08-26T13:05:40.802Z,9.53
2022-08-26T13:08:54.158Z,8.75
2022-08-26T13:11:55.678Z,8.65
2022-08-26T13:14:59.027Z,8.43
2022-08-26T13:18:00.589Z,8.80
2022-08-26T13:21:09.063Z,8.60
2022-08-26T13:24:14.472Z,8.90
2022-08-26T13:27:17.853Z,8.40
2022-08-26T13:30:19.807Z,8.38
2022-08-26T13:33:22.705Z,8.00
2022-08-26T13:36:24.412Z,8.95
2022-08-26T13:39:26.610Z,8.20
2022-08-26T13:42:28.284Z,8.30
2022-08-26T13:45:29.876Z,7.55
2022-08-26T13:48:33.882Z,7.85
2022-08-26T13:51:36.019Z,8.38
2022-08-26T13:54:37.820Z,7.40
2022-08-26T13:57:39.387Z,7.30
2022-08-26T14:00:41.866Z,8.18
2022-08-26T14:03:43.798Z,7.85
2022-08-26T14:06:45.527Z,8.35
2022-08-26T14:09:49.664Z,8.07
2022-08-26T14:12:51.830Z,7.93
2022-08-26T14:15:53.951Z,8.75
2022-08-26T14:18:55.644Z,9.05
2022-08-26T14:21:57.570Z,9.38
2022-08-26T14:24:59.374Z,9.73
2022-08-26T14:28:01.523Z,10.00
2022-08-26T14:31:04.556Z,9.65
2022-08-26T14:34:08.090Z,10.23
2022-08-26T14:37:13.534Z,9.63
2022-08-26T14:40:18.889Z,9.52
2022-08-26T14:43:20.535Z,10.13
2022-08-26T14:46:22.187Z,10.20
2022-08-26T14:49:24.378Z,9.50
2022-08-26T14:52:26.245Z,9.05
2022-08-26T14:55:29.136Z,9.75
2022-08-26T14:58:35.108Z,10.13
2022-08-26T15:01:37.404Z,10.98
2022-08-26T15:04:40.471Z,10.63
2022-08-26T15:07:42.162Z,10.05
2022-08-26T15:10:43.755Z,10.38
2022-08-26T15:13:46.025Z,10.68
2022-08-26T15:16:49.604Z,9.55
2022-08-26T15:19:51.609Z,9.43
2022-08-26T15:22:53.500Z,9.90
2022-08-26T15:25:55.145Z,10.38
2022-08-26T15:28:58.400Z,9.98
2022-08-26T15:32:02.547Z,9.88
2022-08-26T15:35:08.905Z,10.40
2022-08-26T15:38:11.553Z,10.52
2022-08-26T15:41:14.303Z,10.18
2022-08-26T15:44:17.207Z,9.27
2022-08-26T15:47:19.173Z,8.75
2022-08-26T15:50:20.866Z,8.90
2022-08-26T15:53:23.297Z,8.13
2022-08-26T15:56:26.813Z,8.68
2022-08-26T15:59:31.508Z,8.20
2022-08-26T16:02:33.177Z,8.07
2022-08-26T16:05:39.638Z,8.73
2022-08-26T16:08:41.623Z,9.48
2022-08-26T16:11:43.203Z,8.93
2022-08-26T16:14:45.050Z,9.50
2022-08-26T16:17:46.629Z,9.13
2022-08-26T16:21:05.021Z,8.75
2022-08-26T16:24:14.066Z,9.38
2022-08-26T16:27:15.677Z,11.00
2022-08-26T16:30:19.465Z,10.57
2022-08-26T16:33:21.578Z,11.50
2022-08-26T16:36:31.671Z,10.73
2022-08-26T16:39:33.219Z,11.07
2022-08-26T16:42:41.775Z,10.90
2022-08-26T16:45:43.328Z,11.27
2022-08-26T16:48:45.795Z,11.65
2022-08-26T16:51:47.439Z,11.63
2022-08-26T16:54:49.243Z,11.77
2022-08-26T16:57:52.878Z,12.35
2022-08-26T17:00:54.521Z,11.77
2022-08-26T17:03:56.241Z,13.27
2022-08-26T17:06:58.933Z,12.38
2022-08-26T17:10:00.474Z,12.40
2022-08-26T17:13:02.537Z,13.57
2022-08-26T17:16:08.485Z,13.02
2022-08-26T17:19:10.776Z,13.38
2022-08-26T17:22:12.749Z,14.55
2022-08-26T17:25:25.122Z,13.52
2022-08-26T17:28:26.709Z,14.60
2022-08-26T17:31:28.425Z,14.98
2022-08-26T17:34:30.089Z,14.43
2022-08-26T17:37:31.800Z,14.98
2022-08-26T17:40:34.742Z,15.32
2022-08-26T17:43:36.897Z,16.00
2022-08-26T17:46:38.753Z,14.90
2022-08-26T17:49:40.765Z,15.63
2022-08-26T17:52:43.864Z,15.30
2022-08-26T17:55:46.198Z,16.60
2022-08-26T17:58:51.091Z,16.13
2022-08-26T18:01:54.547Z,16.50
2022-08-26T18:04:57.426Z,17.27
2022-08-26T18:07:58.956Z,16.60
2022-08-26T18:11:00.504Z,16.80
2022-08-26T18:14:02.034Z,18.35
2022-08-26T18:17:04.282Z,16.27
2022-08-26T18:20:11.576Z,17.52
2022-08-26T18:23:13.252Z,18.23
2022-08-26T18:26:22.383Z,18.70
2022-08-26T18:29:25.381Z,19.38
2022-08-26T18:32:27.061Z,19.38
2022-08-26T18:35:29.849Z,18.98
2022-08-26T18:38:31.507Z,19.33
2022-08-26T18:41:42.290Z,19.00
2022-08-26T18:44:43.807Z,19.60
2022-08-26T18:47:45.387Z,18.63
2022-08-26T18:50:47.528Z,19.35
2022-08-26T18:53:49.980Z,19.02
2022-08-26T18:56:51.725Z,18.42
2022-08-26T18:59:53.262Z,17.48
2022-08-26T19:02:56.100Z,17.40
2022-08-26T19:05:58.231Z,17.42
2022-08-26T19:09:00.462Z,17.25
2022-08-26T19:12:03.627Z,16.08
2022-08-26T19:15:05.882Z,15.60
2022-08-26T19:18:08.963Z,15.77
2022-08-26T19:21:10.910Z,16.85
2022-08-26T19:24:17.206Z,15.95
2022-08-26T19:27:18.752Z,16.48
2022-08-26T19:30:20.269Z,16.67
2022-08-26T19:33:22.043Z,15.00
2022-08-26T19:36:25.515Z,13.85
2022-08-26T19:39:27.376Z,13.60
2022-08-26T19:42:29.734Z,13.95
2022-08-26T19:45:32.381Z,13.63
2022-08-26T19:48:35.292Z,14.30
2022-08-26T19:51:36.875Z,13.43
2022-08-26T19:54:39.525Z,14.20
2022-08-26T19:57:41.139Z,13.00
2022-08-26T20:00:42.760Z,13.57
2022-08-26T20:03:45.655Z,11.60
2022-08-26T20:06:47.258Z,12.07
2022-08-26T20:09:53.353Z,12.27
2022-08-26T20:12:54.993Z,11.30
2022-08-26T20:15:56.628Z,10.30
2022-08-26T20:19:16.847Z,9.80
2022-08-26T20:25:20.957Z,10.32
2022-08-26T20:28:22.523Z,10.93
2022-08-26T20:31:25.697Z,11.18
2022-08-26T20:34:27.364Z,10.52
2022-08-26T20:37:29.270Z,10.27
2022-08-26T20:40:30.933Z,10.35
2022-08-26T20:43:32.616Z,9.98
2022-08-26T20:46:37.102Z,9.45
2022-08-26T20:49:38.688Z,9.57
2022-08-26T20:52:40.490Z,9.63
2022-08-26T20:55:42.159Z,8.98
2022-08-26T20:58:43.788Z,8.90
2022-08-26T21:01:46.803Z,8.52
2022-08-26T21:04:48.504Z,7.93
2022-08-26T21:07:51.347Z,7.97
2022-08-26T21:10:52.985Z,8.15
2022-08-26T21:14:16.596Z,7.70
2022-08-26T21:17:16.689Z,7.55
2022-08-26T21:20:18.901Z,6.95
2022-08-26T21:23:20.756Z,7.22
2022-08-26T21:26:23.129Z,7.10
2022-08-26T21:29:24.975Z,6.53
2022-08-26T21:32:26.707Z,7.15
2022-08-26T21:35:28.443Z,6.85
2022-08-26T21:38:31.043Z,6.45
2022-08-26T21:41:32.731Z,5.97
2022-08-26T21:44:34.465Z,5.93
2022-08-26T21:47:36.458Z,5.93
2022-08-26T21:50:38.345Z,5.72
2022-08-26T21:53:40.548Z,6.03
2022-08-26T21:56:46.547Z,6.40
2022-08-26T21:59:48.223Z,5.93
2022-08-26T22:02:50.317Z,6.03
2022-08-26T22:05:51.930Z,5.22
2022-08-26T22:08:54.133Z,5.47
2022-08-26T22:11:56.933Z,5.30
2022-08-26T22:14:59.337Z,5.00
2022-08-26T22:18:05.223Z,5.15
2022-08-26T22:21:09.337Z,5.50
2022-08-26T22:24:12.175Z,4.72
2022-08-26T22:27:14.336Z,4.70
2022-08-26T22:30:16.219Z,4.80
2022-08-26T22:33:18.334Z,4.97
2022-08-26T22:36:22.873Z,5.05
2022-08-26T22:39:26.046Z,4.60
2022-08-26T22:42:27.623Z,4.35
2022-08-26T22:45:31.315Z,3.97
2022-08-26T22:48:32.951Z,4.15
2022-08-26T22:51:34.624Z,4.40
2022-08-26T22:54:36.250Z,4.20
2022-08-26T22:57:37.859Z,4.07
2022-08-26T23:00:40.006Z,3.92
2022-08-26T23:03:42.293Z,3.97
2022-08-26T23:06:47.655Z,3.85
2022-08-26T23:09:49.624Z,3.85
2022-08-26T23:12:52.410Z,4.03
2022-08-26T23:16:02.730Z,3.67
2022-08-26T23:19:04.887Z,3.30
2022-08-26T23:22:06.645Z,3.83
2022-08-26T23:25:10.789Z,3.65
2022-08-26T23:28:13.151Z,3.70
2022-08-26T23:31:14.866Z,3.20
2022-08-26T23:34:35.424Z,3.30
2022-08-26T23:37:40.228Z,3.58
2022-08-26T23:40:42.597Z,3.40
2022-08-26T23:43:45.029Z,3.83
2022-08-26T23:46:46.662Z,3.83
2022-08-26T23:49:48.260Z,3.65
2022-08-26T23:53:08.794Z,3.30
2022-08-26T23:56:15.824Z,3.80
2022-08-26T23:59:17.536Z,3.30
